Weather at Seattle–Tacoma International Airport

Public forecast

Using degrees Fahrenheit for public forecast. Weather courtesy of forecast.io.

Current aviation weather report (METAR) for Seattle–Tacoma International Airport

2024/02/29 07:43 (retrieved 9 minutes ago)

KSEA 290743Z 24011KT 10SM -RA BKN008 OVC032 05/04 A2941 RMK AO2 P0006 T00500039

Aviation forecast (TAF) for Seattle–Tacoma International Airport

2024/02/29 06:48 (retrieved 1 hour ago)

TAF KSEA 290545Z 2906/0112 16012G18KT 5SM -RA OVC035 FM290900 20012KT 6SM BR VCSH OVC025 TEMPO 2912/2915 5SM -RA BR OVC015 FM292000 20010KT P6SM VCSH OVC050 FM010000 17007KT 6SM -SHRA BR OVC035